sensor_id;sensor_type;location;lat;lon;timestamp;temperature;humidity
25192;DHT22;13143;50.924;5.320;2024-01-30T00:01:50;11.00;99.90
25192;DHT22;13143;50.924;5.320;2024-01-30T00:04:15;11.00;99.90
25192;DHT22;13143;50.924;5.320;2024-01-30T00:06:43;11.00;99.90
25192;DHT22;13143;50.924;5.320;2024-01-30T00:09:08;11.00;99.90
25192;DHT22;13143;50.924;5.320;2024-01-30T00:11:35;11.00;99.90
25192;DHT22;13143;50.924;5.320;2024-01-30T00:14:01;11.00;99.90
25192;DHT22;13143;50.924;5.320;2024-01-30T00:16:28;11.00;99.90
25192;DHT22;13143;50.924;5.320;2024-01-30T00:18:54;10.90;99.90
25192;DHT22;13143;50.924;5.320;2024-01-30T00:21:20;11.00;99.90
25192;DHT22;13143;50.924;5.320;2024-01-30T00:23:47;11.00;99.90
25192;DHT22;13143;50.924;5.320;2024-01-30T00:26:13;10.90;99.90
25192;DHT22;13143;50.924;5.320;2024-01-30T00:28:40;10.90;99.90
25192;DHT22;13143;50.924;5.320;2024-01-30T00:31:07;10.90;99.90
25192;DHT22;13143;50.924;5.320;2024-01-30T00:33:32;10.90;99.90
25192;DHT22;13143;50.924;5.320;2024-01-30T00:35:58;10.90;99.90
25192;DHT22;13143;50.924;5.320;2024-01-30T00:38:24;10.90;99.90
25192;DHT22;13143;50.924;5.320;2024-01-30T00:40:50;10.90;99.90
25192;DHT22;13143;50.924;5.320;2024-01-30T00:43:16;10.90;99.90
25192;DHT22;13143;50.924;5.320;2024-01-30T00:45:43;10.90;99.90
25192;DHT22;13143;50.924;5.320;2024-01-30T00:48:09;10.90;99.90
25192;DHT22;13143;50.924;5.320;2024-01-30T00:50:35;10.90;99.90
25192;DHT22;13143;50.924;5.320;2024-01-30T00:53:01;10.90;99.90
25192;DHT22;13143;50.924;5.320;2024-01-30T00:55:27;10.90;99.90
25192;DHT22;13143;50.924;5.320;2024-01-30T00:57:52;10.90;99.90
25192;DHT22;13143;50.924;5.320;2024-01-30T01:00:18;10.90;99.90
25192;DHT22;13143;50.924;5.320;2024-01-30T01:02:46;10.90;99.90
25192;DHT22;13143;50.924;5.320;2024-01-30T01:05:12;10.80;99.90
25192;DHT22;13143;50.924;5.320;2024-01-30T01:07:38;10.80;99.90
25192;DHT22;13143;50.924;5.320;2024-01-30T01:10:06;10.80;99.90
25192;DHT22;13143;50.924;5.320;2024-01-30T01:12:31;10.80;99.90
25192;DHT22;13143;50.924;5.320;2024-01-30T01:14:57;10.80;99.90
25192;DHT22;13143;50.924;5.320;2024-01-30T01:17:23;10.80;99.90
25192;DHT22;13143;50.924;5.320;2024-01-30T01:19:49;10.80;99.90
25192;DHT22;13143;50.924;5.320;2024-01-30T01:22:16;10.80;99.90
25192;DHT22;13143;50.924;5.320;2024-01-30T01:24:43;10.80;99.90
25192;DHT22;13143;50.924;5.320;2024-01-30T01:27:09;10.80;99.90
25192;DHT22;13143;50.924;5.320;2024-01-30T01:29:35;10.80;99.90
25192;DHT22;13143;50.924;5.320;2024-01-30T01:32:01;10.80;99.90
25192;DHT22;13143;50.924;5.320;2024-01-30T01:34:27;10.80;99.90
25192;DHT22;13143;50.924;5.320;2024-01-30T01:36:53;10.80;99.90
25192;DHT22;13143;50.924;5.320;2024-01-30T01:39:22;10.70;99.90
25192;DHT22;13143;50.924;5.320;2024-01-30T01:41:48;10.80;99.90
25192;DHT22;13143;50.924;5.320;2024-01-30T01:44:14;10.70;99.90
25192;DHT22;13143;50.924;5.320;2024-01-30T01:46:40;10.70;99.90
25192;DHT22;13143;50.924;5.320;2024-01-30T01:49:07;10.70;99.90
25192;DHT22;13143;50.924;5.320;2024-01-30T01:51:34;10.70;99.90
25192;DHT22;13143;50.924;5.320;2024-01-30T01:54:04;10.70;99.90
25192;DHT22;13143;50.924;5.320;2024-01-30T01:56:33;10.70;99.90
25192;DHT22;13143;50.924;5.320;2024-01-30T01:59:05;10.70;99.90
25192;DHT22;13143;50.924;5.320;2024-01-30T02:01:32;10.70;99.90
25192;DHT22;13143;50.924;5.320;2024-01-30T02:03:59;10.60;99.90
25192;DHT22;13143;50.924;5.320;2024-01-30T02:06:25;10.60;99.90
25192;DHT22;13143;50.924;5.320;2024-01-30T02:08:51;10.60;99.90
25192;DHT22;13143;50.924;5.320;2024-01-30T02:11:17;10.60;99.90
25192;DHT22;13143;50.924;5.320;2024-01-30T02:13:43;10.60;99.90
25192;DHT22;13143;50.924;5.320;2024-01-30T02:16:09;10.60;99.90
25192;DHT22;13143;50.924;5.320;2024-01-30T02:18:35;10.60;99.90
25192;DHT22;13143;50.924;5.320;2024-01-30T02:21:07;10.60;99.90
25192;DHT22;13143;50.924;5.320;2024-01-30T02:23:33;10.60;99.90
25192;DHT22;13143;50.924;5.320;2024-01-30T02:26:00;10.60;99.90
25192;DHT22;13143;50.924;5.320;2024-01-30T02:28:26;10.60;99.90
25192;DHT22;13143;50.924;5.320;2024-01-30T02:30:52;10.60;99.90
25192;DHT22;13143;50.924;5.320;2024-01-30T02:33:18;10.60;99.90
25192;DHT22;13143;50.924;5.320;2024-01-30T02:35:44;10.60;99.90
25192;DHT22;13143;50.924;5.320;2024-01-30T02:38:10;10.60;99.90
25192;DHT22;13143;50.924;5.320;2024-01-30T02:40:36;10.60;99.90
25192;DHT22;13143;50.924;5.320;2024-01-30T02:43:03;10.60;99.90
25192;DHT22;13143;50.924;5.320;2024-01-30T02:45:29;10.60;99.90
25192;DHT22;13143;50.924;5.320;2024-01-30T02:47:54;10.60;99.90
25192;DHT22;13143;50.924;5.320;2024-01-30T02:50:20;10.60;99.90
25192;DHT22;13143;50.924;5.320;2024-01-30T02:52:46;10.60;99.90
25192;DHT22;13143;50.924;5.320;2024-01-30T02:55:12;10.60;99.90
25192;DHT22;13143;50.924;5.320;2024-01-30T02:57:38;10.60;99.90
25192;DHT22;13143;50.924;5.320;2024-01-30T03:00:05;10.60;99.90
25192;DHT22;13143;50.924;5.320;2024-01-30T03:02:32;10.60;99.90
25192;DHT22;13143;50.924;5.320;2024-01-30T03:04:59;10.60;99.90
25192;DHT22;13143;50.924;5.320;2024-01-30T03:07:25;10.60;99.90
25192;DHT22;13143;50.924;5.320;2024-01-30T03:09:50;10.70;99.90
25192;DHT22;13143;50.924;5.320;2024-01-30T03:12:16;10.60;99.90
25192;DHT22;13143;50.924;5.320;2024-01-30T03:14:42;10.60;99.90
25192;DHT22;13143;50.924;5.320;2024-01-30T03:17:08;10.60;99.90
25192;DHT22;13143;50.924;5.320;2024-01-30T03:19:33;10.60;99.90
25192;DHT22;13143;50.924;5.320;2024-01-30T03:21:59;10.70;99.90
25192;DHT22;13143;50.924;5.320;2024-01-30T03:24:25;10.70;99.90
25192;DHT22;13143;50.924;5.320;2024-01-30T03:26:51;10.70;99.90
25192;DHT22;13143;50.924;5.320;2024-01-30T03:29:17;10.70;99.90
25192;DHT22;13143;50.924;5.320;2024-01-30T03:31:43;10.70;99.90
25192;DHT22;13143;50.924;5.320;2024-01-30T03:34:08;10.70;99.90
25192;DHT22;13143;50.924;5.320;2024-01-30T03:36:34;10.70;99.90
25192;DHT22;13143;50.924;5.320;2024-01-30T03:39:00;10.70;99.90
25192;DHT22;13143;50.924;5.320;2024-01-30T03:41:26;10.70;99.90
25192;DHT22;13143;50.924;5.320;2024-01-30T03:43:52;10.70;99.90
25192;DHT22;13143;50.924;5.320;2024-01-30T03:46:18;10.70;99.90
25192;DHT22;13143;50.924;5.320;2024-01-30T03:48:45;10.70;99.90
25192;DHT22;13143;50.924;5.320;2024-01-30T03:51:11;10.70;99.90
25192;DHT22;13143;50.924;5.320;2024-01-30T03:53:41;10.70;99.90
25192;DHT22;13143;50.924;5.320;2024-01-30T03:56:08;10.70;99.90
25192;DHT22;13143;50.924;5.320;2024-01-30T03:58:34;10.70;99.90
25192;DHT22;13143;50.924;5.320;2024-01-30T04:01:00;10.80;99.90
25192;DHT22;13143;50.924;5.320;2024-01-30T04:03:26;10.80;99.90
25192;DHT22;13143;50.924;5.320;2024-01-30T04:05:52;10.80;99.90
25192;DHT22;13143;50.924;5.320;2024-01-30T04:08:18;10.80;99.90
25192;DHT22;13143;50.924;5.320;2024-01-30T04:10:49;10.80;99.90
25192;DHT22;13143;50.924;5.320;2024-01-30T04:13:14;10.80;99.90
25192;DHT22;13143;50.924;5.320;2024-01-30T04:15:40;10.80;99.90
25192;DHT22;13143;50.924;5.320;2024-01-30T04:18:06;10.80;99.90
25192;DHT22;13143;50.924;5.320;2024-01-30T04:20:31;10.80;99.90
25192;DHT22;13143;50.924;5.320;2024-01-30T04:22:57;10.80;99.90
25192;DHT22;13143;50.924;5.320;2024-01-30T04:25:23;10.80;99.90
25192;DHT22;13143;50.924;5.320;2024-01-30T04:27:49;10.80;99.90
25192;DHT22;13143;50.924;5.320;2024-01-30T04:30:14;10.80;99.90
25192;DHT22;13143;50.924;5.320;2024-01-30T04:32:40;10.80;99.90
25192;DHT22;13143;50.924;5.320;2024-01-30T04:35:06;10.80;99.90
25192;DHT22;13143;50.924;5.320;2024-01-30T04:37:32;10.80;99.90
25192;DHT22;13143;50.924;5.320;2024-01-30T04:39:58;10.80;99.90
25192;DHT22;13143;50.924;5.320;2024-01-30T04:42:23;10.80;99.90
25192;DHT22;13143;50.924;5.320;2024-01-30T04:44:49;10.80;99.90
25192;DHT22;13143;50.924;5.320;2024-01-30T04:47:16;10.80;99.90
25192;DHT22;13143;50.924;5.320;2024-01-30T04:49:42;10.80;99.90
25192;DHT22;13143;50.924;5.320;2024-01-30T04:52:08;10.80;99.90
25192;DHT22;13143;50.924;5.320;2024-01-30T04:54:35;10.80;99.90
25192;DHT22;13143;50.924;5.320;2024-01-30T04:57:01;10.80;99.90
25192;DHT22;13143;50.924;5.320;2024-01-30T04:59:27;10.80;99.90
25192;DHT22;13143;50.924;5.320;2024-01-30T05:01:53;10.80;99.90
25192;DHT22;13143;50.924;5.320;2024-01-30T05:04:19;10.80;99.90
25192;DHT22;13143;50.924;5.320;2024-01-30T05:06:45;10.90;99.90
25192;DHT22;13143;50.924;5.320;2024-01-30T05:09:11;10.90;99.90
25192;DHT22;13143;50.924;5.320;2024-01-30T05:11:39;10.90;99.90
25192;DHT22;13143;50.924;5.320;2024-01-30T05:14:06;10.80;99.90
25192;DHT22;13143;50.924;5.320;2024-01-30T05:16:32;10.80;99.90
25192;DHT22;13143;50.924;5.320;2024-01-30T05:18:58;10.80;99.90
25192;DHT22;13143;50.924;5.320;2024-01-30T05:21:24;10.80;99.90
25192;DHT22;13143;50.924;5.320;2024-01-30T05:23:49;10.80;99.90
25192;DHT22;13143;50.924;5.320;2024-01-30T05:26:15;10.80;99.90
25192;DHT22;13143;50.924;5.320;2024-01-30T05:28:41;10.90;99.90
25192;DHT22;13143;50.924;5.320;2024-01-30T05:31:07;10.90;99.90
25192;DHT22;13143;50.924;5.320;2024-01-30T05:33:33;10.80;99.90
25192;DHT22;13143;50.924;5.320;2024-01-30T05:35:59;10.80;99.90
25192;DHT22;13143;50.924;5.320;2024-01-30T05:38:25;10.80;99.90
25192;DHT22;13143;50.924;5.320;2024-01-30T05:40:50;10.80;99.90
25192;DHT22;13143;50.924;5.320;2024-01-30T05:43:16;10.80;99.90
25192;DHT22;13143;50.924;5.320;2024-01-30T05:45:42;10.80;99.90
25192;DHT22;13143;50.924;5.320;2024-01-30T05:48:07;10.80;99.90
25192;DHT22;13143;50.924;5.320;2024-01-30T05:50:33;10.80;99.90
25192;DHT22;13143;50.924;5.320;2024-01-30T05:52:59;10.80;99.90
25192;DHT22;13143;50.924;5.320;2024-01-30T05:55:24;10.80;99.90
25192;DHT22;13143;50.924;5.320;2024-01-30T05:57:50;10.80;99.90
25192;DHT22;13143;50.924;5.320;2024-01-30T06:00:17;10.80;99.90
25192;DHT22;13143;50.924;5.320;2024-01-30T06:02:43;10.80;99.90
25192;DHT22;13143;50.924;5.320;2024-01-30T06:05:09;10.80;99.90
25192;DHT22;13143;50.924;5.320;2024-01-30T06:07:35;10.80;99.90
25192;DHT22;13143;50.924;5.320;2024-01-30T06:10:00;10.80;99.90
25192;DHT22;13143;50.924;5.320;2024-01-30T06:12:27;10.80;99.90
25192;DHT22;13143;50.924;5.320;2024-01-30T06:14:53;10.80;99.90
25192;DHT22;13143;50.924;5.320;2024-01-30T06:17:22;10.80;99.90
25192;DHT22;13143;50.924;5.320;2024-01-30T06:19:48;10.80;99.90
25192;DHT22;13143;50.924;5.320;2024-01-30T06:22:14;10.80;99.90
25192;DHT22;13143;50.924;5.320;2024-01-30T06:24:40;10.80;99.90
25192;DHT22;13143;50.924;5.320;2024-01-30T06:27:06;10.80;99.90
25192;DHT22;13143;50.924;5.320;2024-01-30T06:29:32;10.80;99.90
25192;DHT22;13143;50.924;5.320;2024-01-30T06:31:57;10.80;99.90
25192;DHT22;13143;50.924;5.320;2024-01-30T06:34:23;10.80;99.90
25192;DHT22;13143;50.924;5.320;2024-01-30T06:36:49;10.80;99.90
25192;DHT22;13143;50.924;5.320;2024-01-30T06:39:14;10.80;99.90
25192;DHT22;13143;50.924;5.320;2024-01-30T06:41:40;10.80;99.90
25192;DHT22;13143;50.924;5.320;2024-01-30T06:44:06;10.80;99.90
25192;DHT22;13143;50.924;5.320;2024-01-30T06:46:35;10.80;99.90
25192;DHT22;13143;50.924;5.320;2024-01-30T06:49:00;10.80;99.90
25192;DHT22;13143;50.924;5.320;2024-01-30T06:51:26;10.80;99.90
25192;DHT22;13143;50.924;5.320;2024-01-30T06:53:52;10.80;99.90
25192;DHT22;13143;50.924;5.320;2024-01-30T06:56:18;10.80;99.90
25192;DHT22;13143;50.924;5.320;2024-01-30T06:58:47;10.90;99.90
25192;DHT22;13143;50.924;5.320;2024-01-30T07:01:14;10.80;99.90
25192;DHT22;13143;50.924;5.320;2024-01-30T07:03:39;10.80;99.90
25192;DHT22;13143;50.924;5.320;2024-01-30T07:06:05;10.80;99.90
25192;DHT22;13143;50.924;5.320;2024-01-30T07:08:31;10.80;99.90
25192;DHT22;13143;50.924;5.320;2024-01-30T07:10:57;10.80;99.90
25192;DHT22;13143;50.924;5.320;2024-01-30T07:13:23;10.90;99.90
25192;DHT22;13143;50.924;5.320;2024-01-30T07:15:48;10.90;99.90
25192;DHT22;13143;50.924;5.320;2024-01-30T07:18:14;10.90;99.90
25192;DHT22;13143;50.924;5.320;2024-01-30T07:20:40;10.90;99.90
25192;DHT22;13143;50.924;5.320;2024-01-30T07:23:15;10.90;99.90
25192;DHT22;13143;50.924;5.320;2024-01-30T07:25:43;10.90;99.90
25192;DHT22;13143;50.924;5.320;2024-01-30T07:28:09;10.90;99.90
25192;DHT22;13143;50.924;5.320;2024-01-30T07:30:36;10.90;99.90
25192;DHT22;13143;50.924;5.320;2024-01-30T07:33:02;10.90;99.90
25192;DHT22;13143;50.924;5.320;2024-01-30T07:35:27;10.90;99.90
25192;DHT22;13143;50.924;5.320;2024-01-30T07:37:53;10.90;99.90
25192;DHT22;13143;50.924;5.320;2024-01-30T07:40:19;10.90;99.90
25192;DHT22;13143;50.924;5.320;2024-01-30T07:42:45;10.90;99.90
25192;DHT22;13143;50.924;5.320;2024-01-30T07:45:11;11.00;99.90
25192;DHT22;13143;50.924;5.320;2024-01-30T07:47:36;11.00;99.90
25192;DHT22;13143;50.924;5.320;2024-01-30T07:50:02;11.00;99.90
25192;DHT22;13143;50.924;5.320;2024-01-30T07:52:28;11.00;99.90
25192;DHT22;13143;50.924;5.320;2024-01-30T07:54:54;11.00;99.90
25192;DHT22;13143;50.924;5.320;2024-01-30T07:57:20;11.00;99.90
25192;DHT22;13143;50.924;5.320;2024-01-30T07:59:46;11.00;99.90
25192;DHT22;13143;50.924;5.320;2024-01-30T08:02:12;11.00;99.90
25192;DHT22;13143;50.924;5.320;2024-01-30T08:04:39;11.00;99.90
25192;DHT22;13143;50.924;5.320;2024-01-30T08:07:04;11.00;99.90
25192;DHT22;13143;50.924;5.320;2024-01-30T08:09:30;11.00;99.90
25192;DHT22;13143;50.924;5.320;2024-01-30T08:11:56;11.10;99.90
25192;DHT22;13143;50.924;5.320;2024-01-30T08:14:22;11.00;99.90
25192;DHT22;13143;50.924;5.320;2024-01-30T08:16:47;11.10;99.90
25192;DHT22;13143;50.924;5.320;2024-01-30T08:19:14;11.00;99.90
25192;DHT22;13143;50.924;5.320;2024-01-30T08:21:40;11.10;99.90
25192;DHT22;13143;50.924;5.320;2024-01-30T08:24:06;11.10;99.90
25192;DHT22;13143;50.924;5.320;2024-01-30T08:26:33;11.10;99.90
25192;DHT22;13143;50.924;5.320;2024-01-30T08:28:59;11.10;99.90
25192;DHT22;13143;50.924;5.320;2024-01-30T08:31:25;11.10;99.90
25192;DHT22;13143;50.924;5.320;2024-01-30T08:33:51;11.10;99.90
25192;DHT22;13143;50.924;5.320;2024-01-30T08:36:17;11.10;99.90
25192;DHT22;13143;50.924;5.320;2024-01-30T08:38:43;11.10;99.90
25192;DHT22;13143;50.924;5.320;2024-01-30T08:41:09;11.20;99.90
25192;DHT22;13143;50.924;5.320;2024-01-30T08:43:35;11.10;99.90
25192;DHT22;13143;50.924;5.320;2024-01-30T08:46:01;11.20;99.90
25192;DHT22;13143;50.924;5.320;2024-01-30T08:48:27;11.20;99.90
25192;DHT22;13143;50.924;5.320;2024-01-30T08:50:53;11.20;99.90
25192;DHT22;13143;50.924;5.320;2024-01-30T08:53:19;11.20;99.90
25192;DHT22;13143;50.924;5.320;2024-01-30T08:55:45;11.20;99.90
25192;DHT22;13143;50.924;5.320;2024-01-30T08:58:11;11.30;99.90
25192;DHT22;13143;50.924;5.320;2024-01-30T09:00:37;11.30;99.90
25192;DHT22;13143;50.924;5.320;2024-01-30T09:03:06;11.30;99.90
25192;DHT22;13143;50.924;5.320;2024-01-30T09:05:31;11.30;99.90
25192;DHT22;13143;50.924;5.320;2024-01-30T09:07:57;11.30;99.90
25192;DHT22;13143;50.924;5.320;2024-01-30T09:10:23;11.30;99.90
25192;DHT22;13143;50.924;5.320;2024-01-30T09:12:48;11.30;99.90
25192;DHT22;13143;50.924;5.320;2024-01-30T09:15:15;11.30;99.90
25192;DHT22;13143;50.924;5.320;2024-01-30T09:17:41;11.30;99.90
25192;DHT22;13143;50.924;5.320;2024-01-30T09:20:07;11.40;99.90
25192;DHT22;13143;50.924;5.320;2024-01-30T09:22:32;11.30;99.90
25192;DHT22;13143;50.924;5.320;2024-01-30T09:24:58;11.40;99.90
25192;DHT22;13143;50.924;5.320;2024-01-30T09:27:24;11.40;99.90
25192;DHT22;13143;50.924;5.320;2024-01-30T09:29:50;11.40;99.90
25192;DHT22;13143;50.924;5.320;2024-01-30T09:32:16;11.40;99.90
25192;DHT22;13143;50.924;5.320;2024-01-30T09:34:43;11.40;99.90
25192;DHT22;13143;50.924;5.320;2024-01-30T09:37:08;11.40;99.90
25192;DHT22;13143;50.924;5.320;2024-01-30T09:39:34;11.50;99.90
25192;DHT22;13143;50.924;5.320;2024-01-30T09:44:54;11.50;99.90
25192;DHT22;13143;50.924;5.320;2024-01-30T09:47:20;11.50;99.90
25192;DHT22;13143;50.924;5.320;2024-01-30T09:49:46;11.50;99.90
25192;DHT22;13143;50.924;5.320;2024-01-30T09:52:13;11.50;99.90
25192;DHT22;13143;50.924;5.320;2024-01-30T09:54:40;11.50;99.90
25192;DHT22;13143;50.924;5.320;2024-01-30T09:57:05;11.60;99.90
25192;DHT22;13143;50.924;5.320;2024-01-30T09:59:32;11.60;99.90
25192;DHT22;13143;50.924;5.320;2024-01-30T10:01:58;11.60;99.90
25192;DHT22;13143;50.924;5.320;2024-01-30T10:04:24;11.60;99.90
25192;DHT22;13143;50.924;5.320;2024-01-30T10:06:50;11.60;99.90
25192;DHT22;13143;50.924;5.320;2024-01-30T10:09:16;11.60;99.90
25192;DHT22;13143;50.924;5.320;2024-01-30T10:11:42;11.60;99.90
25192;DHT22;13143;50.924;5.320;2024-01-30T10:14:08;11.70;99.90
25192;DHT22;13143;50.924;5.320;2024-01-30T10:16:36;11.70;99.90
25192;DHT22;13143;50.924;5.320;2024-01-30T10:19:02;11.70;99.90
25192;DHT22;13143;50.924;5.320;2024-01-30T10:21:29;11.80;99.90
25192;DHT22;13143;50.924;5.320;2024-01-30T10:23:55;11.80;99.90
25192;DHT22;13143;50.924;5.320;2024-01-30T10:26:21;11.80;99.90
25192;DHT22;13143;50.924;5.320;2024-01-30T10:28:48;11.80;99.90
25192;DHT22;13143;50.924;5.320;2024-01-30T10:31:18;11.80;99.90
25192;DHT22;13143;50.924;5.320;2024-01-30T10:33:46;11.90;99.90
25192;DHT22;13143;50.924;5.320;2024-01-30T10:36:13;11.90;99.90
25192;DHT22;13143;50.924;5.320;2024-01-30T10:38:42;11.90;99.90
25192;DHT22;13143;50.924;5.320;2024-01-30T10:41:11;11.90;99.90
25192;DHT22;13143;50.924;5.320;2024-01-30T10:43:41;11.90;99.90
25192;DHT22;13143;50.924;5.320;2024-01-30T10:46:20;12.00;99.90
25192;DHT22;13143;50.924;5.320;2024-01-30T10:48:57;11.90;99.90
25192;DHT22;13143;50.924;5.320;2024-01-30T10:51:27;12.00;99.90
25192;DHT22;13143;50.924;5.320;2024-01-30T10:53:53;12.00;99.90
25192;DHT22;13143;50.924;5.320;2024-01-30T10:56:23;12.00;99.90
25192;DHT22;13143;50.924;5.320;2024-01-30T10:58:50;12.00;99.90
25192;DHT22;13143;50.924;5.320;2024-01-30T11:01:24;12.00;99.90
25192;DHT22;13143;50.924;5.320;2024-01-30T11:03:53;12.10;99.90
25192;DHT22;13143;50.924;5.320;2024-01-30T11:06:23;12.00;99.90
25192;DHT22;13143;50.924;5.320;2024-01-30T11:09:09;12.10;99.90
25192;DHT22;13143;50.924;5.320;2024-01-30T11:11:55;12.10;99.90
25192;DHT22;13143;50.924;5.320;2024-01-30T11:14:25;12.10;99.90
25192;DHT22;13143;50.924;5.320;2024-01-30T11:16:52;12.10;99.90
25192;DHT22;13143;50.924;5.320;2024-01-30T11:19:24;12.20;99.90
25192;DHT22;13143;50.924;5.320;2024-01-30T11:21:53;12.20;99.90
25192;DHT22;13143;50.924;5.320;2024-01-30T11:24:20;12.20;99.90
25192;DHT22;13143;50.924;5.320;2024-01-30T11:26:59;12.20;99.90
25192;DHT22;13143;50.924;5.320;2024-01-30T11:29:28;12.20;99.90
25192;DHT22;13143;50.924;5.320;2024-01-30T11:31:58;12.20;99.90
25192;DHT22;13143;50.924;5.320;2024-01-30T11:34:24;12.20;99.90
25192;DHT22;13143;50.924;5.320;2024-01-30T11:36:56;12.20;99.90
25192;DHT22;13143;50.924;5.320;2024-01-30T11:39:25;12.20;99.90
25192;DHT22;13143;50.924;5.320;2024-01-30T11:41:54;12.20;99.90
25192;DHT22;13143;50.924;5.320;2024-01-30T11:44:21;12.20;99.90
25192;DHT22;13143;50.924;5.320;2024-01-30T11:46:53;12.20;99.90
25192;DHT22;13143;50.924;5.320;2024-01-30T11:49:19;12.20;99.90
25192;DHT22;13143;50.924;5.320;2024-01-30T11:51:48;12.30;99.90
25192;DHT22;13143;50.924;5.320;2024-01-30T11:54:18;12.30;99.90
25192;DHT22;13143;50.924;5.320;2024-01-30T11:56:44;12.20;99.90
25192;DHT22;13143;50.924;5.320;2024-01-30T11:59:10;12.30;99.90
25192;DHT22;13143;50.924;5.320;2024-01-30T12:01:36;12.30;99.90
25192;DHT22;13143;50.924;5.320;2024-01-30T12:04:02;12.30;99.90
25192;DHT22;13143;50.924;5.320;2024-01-30T12:06:28;12.30;99.90
25192;DHT22;13143;50.924;5.320;2024-01-30T12:09:02;12.30;99.90
25192;DHT22;13143;50.924;5.320;2024-01-30T12:11:30;12.30;99.90
25192;DHT22;13143;50.924;5.320;2024-01-30T12:13:56;12.30;99.90
25192;DHT22;13143;50.924;5.320;2024-01-30T12:16:22;12.40;99.90
25192;DHT22;13143;50.924;5.320;2024-01-30T12:18:48;12.40;99.90
25192;DHT22;13143;50.924;5.320;2024-01-30T12:21:17;12.40;99.90
25192;DHT22;13143;50.924;5.320;2024-01-30T12:23:46;12.40;99.90
25192;DHT22;13143;50.924;5.320;2024-01-30T12:26:13;12.40;99.90
25192;DHT22;13143;50.924;5.320;2024-01-30T12:28:48;12.40;99.90
25192;DHT22;13143;50.924;5.320;2024-01-30T12:31:14;12.40;99.90
25192;DHT22;13143;50.924;5.320;2024-01-30T12:33:40;12.40;99.90
25192;DHT22;13143;50.924;5.320;2024-01-30T12:36:06;12.40;99.90
25192;DHT22;13143;50.924;5.320;2024-01-30T12:38:32;12.40;99.90
25192;DHT22;13143;50.924;5.320;2024-01-30T12:40:58;12.40;99.90
25192;DHT22;13143;50.924;5.320;2024-01-30T12:43:24;12.40;99.90
25192;DHT22;13143;50.924;5.320;2024-01-30T12:45:52;12.40;99.90
25192;DHT22;13143;50.924;5.320;2024-01-30T12:48:18;12.40;99.90
25192;DHT22;13143;50.924;5.320;2024-01-30T12:50:43;12.40;99.90
25192;DHT22;13143;50.924;5.320;2024-01-30T12:53:09;12.40;99.90
25192;DHT22;13143;50.924;5.320;2024-01-30T12:55:35;12.50;99.90
25192;DHT22;13143;50.924;5.320;2024-01-30T12:58:01;12.40;99.90
25192;DHT22;13143;50.924;5.320;2024-01-30T13:00:27;12.40;99.90
25192;DHT22;13143;50.924;5.320;2024-01-30T13:02:53;12.40;99.90
25192;DHT22;13143;50.924;5.320;2024-01-30T13:05:19;12.40;99.90
25192;DHT22;13143;50.924;5.320;2024-01-30T13:07:44;12.40;99.90
25192;DHT22;13143;50.924;5.320;2024-01-30T13:10:10;12.40;99.90
25192;DHT22;13143;50.924;5.320;2024-01-30T13:12:36;12.40;99.90
25192;DHT22;13143;50.924;5.320;2024-01-30T13:15:04;12.40;99.90
25192;DHT22;13143;50.924;5.320;2024-01-30T13:17:31;12.40;99.90
25192;DHT22;13143;50.924;5.320;2024-01-30T13:19:57;12.40;99.90
25192;DHT22;13143;50.924;5.320;2024-01-30T13:22:23;12.50;99.90
25192;DHT22;13143;50.924;5.320;2024-01-30T13:24:49;12.40;99.90
25192;DHT22;13143;50.924;5.320;2024-01-30T13:27:15;12.50;99.90
25192;DHT22;13143;50.924;5.320;2024-01-30T13:29:41;12.50;99.90
25192;DHT22;13143;50.924;5.320;2024-01-30T13:32:07;12.50;99.90
25192;DHT22;13143;50.924;5.320;2024-01-30T13:34:32;12.40;99.90
25192;DHT22;13143;50.924;5.320;2024-01-30T13:36:58;12.50;99.90
25192;DHT22;13143;50.924;5.320;2024-01-30T13:39:24;12.40;99.90
25192;DHT22;13143;50.924;5.320;2024-01-30T13:41:50;12.50;99.90
25192;DHT22;13143;50.924;5.320;2024-01-30T13:44:16;12.50;99.90
25192;DHT22;13143;50.924;5.320;2024-01-30T13:46:46;12.40;99.90
25192;DHT22;13143;50.924;5.320;2024-01-30T13:49:12;12.50;99.90
25192;DHT22;13143;50.924;5.320;2024-01-30T13:51:37;12.40;99.90
25192;DHT22;13143;50.924;5.320;2024-01-30T13:54:03;12.40;99.90
25192;DHT22;13143;50.924;5.320;2024-01-30T13:56:29;12.50;99.90
25192;DHT22;13143;50.924;5.320;2024-01-30T13:58:55;12.50;99.90
25192;DHT22;13143;50.924;5.320;2024-01-30T14:01:22;12.40;99.90
25192;DHT22;13143;50.924;5.320;2024-01-30T14:03:47;12.40;99.90
25192;DHT22;13143;50.924;5.320;2024-01-30T14:06:13;12.50;99.90
25192;DHT22;13143;50.924;5.320;2024-01-30T14:08:39;12.40;99.90
25192;DHT22;13143;50.924;5.320;2024-01-30T14:11:05;12.40;99.90
25192;DHT22;13143;50.924;5.320;2024-01-30T14:13:31;12.40;99.90
25192;DHT22;13143;50.924;5.320;2024-01-30T14:15:58;12.40;99.90
25192;DHT22;13143;50.924;5.320;2024-01-30T14:18:24;12.40;99.90
25192;DHT22;13143;50.924;5.320;2024-01-30T14:20:51;12.40;99.90
25192;DHT22;13143;50.924;5.320;2024-01-30T14:23:17;12.40;99.90
25192;DHT22;13143;50.924;5.320;2024-01-30T14:25:43;12.40;99.90
25192;DHT22;13143;50.924;5.320;2024-01-30T14:28:09;12.40;99.90
25192;DHT22;13143;50.924;5.320;2024-01-30T14:30:35;12.40;99.90
25192;DHT22;13143;50.924;5.320;2024-01-30T14:33:01;12.40;99.90
25192;DHT22;13143;50.924;5.320;2024-01-30T14:35:27;12.40;99.90
25192;DHT22;13143;50.924;5.320;2024-01-30T14:37:53;12.40;99.90
25192;DHT22;13143;50.924;5.320;2024-01-30T14:40:19;12.40;99.90
25192;DHT22;13143;50.924;5.320;2024-01-30T14:42:45;12.40;99.90
25192;DHT22;13143;50.924;5.320;2024-01-30T14:45:11;12.40;99.90
25192;DHT22;13143;50.924;5.320;2024-01-30T14:47:37;12.40;99.90
25192;DHT22;13143;50.924;5.320;2024-01-30T14:50:04;12.40;99.90
25192;DHT22;13143;50.924;5.320;2024-01-30T14:52:31;12.40;99.90
25192;DHT22;13143;50.924;5.320;2024-01-30T14:54:57;12.30;99.90
25192;DHT22;13143;50.924;5.320;2024-01-30T14:57:24;12.40;99.90
25192;DHT22;13143;50.924;5.320;2024-01-30T14:59:49;12.30;99.90
25192;DHT22;13143;50.924;5.320;2024-01-30T15:02:15;12.30;99.90
25192;DHT22;13143;50.924;5.320;2024-01-30T15:04:41;12.30;99.90
25192;DHT22;13143;50.924;5.320;2024-01-30T15:07:07;12.30;99.90
25192;DHT22;13143;50.924;5.320;2024-01-30T15:09:33;12.30;99.90
25192;DHT22;13143;50.924;5.320;2024-01-30T15:11:59;12.30;99.90
25192;DHT22;13143;50.924;5.320;2024-01-30T15:14:25;12.30;99.90
25192;DHT22;13143;50.924;5.320;2024-01-30T15:16:50;12.30;99.90
25192;DHT22;13143;50.924;5.320;2024-01-30T15:19:16;12.30;99.90
25192;DHT22;13143;50.924;5.320;2024-01-30T15:21:42;12.30;99.90
25192;DHT22;13143;50.924;5.320;2024-01-30T15:24:07;12.30;99.90
25192;DHT22;13143;50.924;5.320;2024-01-30T15:26:33;12.30;99.90
25192;DHT22;13143;50.924;5.320;2024-01-30T15:28:59;12.30;99.90